Time;durP1;ratioP1;P1;durP2;ratioP2;P2;SDS_P1;SDS_P2;PMS_P1;PMS_P2;Temp;Humidity;BMP_temperature;BMP_pressure;BME280_temperature;BME280_humidity;BME280_pressure;Samples;Min_cycle;Max_cycle;Signal;HPM_P1;HPM_P2
2022/02/03 00:04:31;;;;;;;11.13;7.30;;;;;;;;;;5016554;28;20069;-78
2022/02/03 00:07:01;;;;;;;9.02;6.90;;;;;;;;;;4999625;28;20037;-78
2022/02/03 00:25:43;;;;;;;9.00;6.03;;;;;;;;;;5016927;28;20046;-78
2022/02/03 00:31:04;;;;;;;7.45;5.57;;;;;;;;;;5014627;28;20029;-78
2022/02/03 00:34:35;;;;;;;7.65;5.95;;;;;;;;;;5016088;28;20073;-78
2022/02/03 00:36:27;;;;;;;8.02;6.25;;;;;;;;;;4998368;28;20108;-78
2022/02/03 00:50:23;;;;;;;7.00;5.57;;;;;;;;;;5017211;28;20072;-78
2022/02/03 00:52:36;;;;;;;7.63;5.07;;;;;;;;;;5029717;28;20981;-79
2022/02/03 00:55:03;;;;;;;5.68;4.82;;;;;;;;;;4998152;28;20029;-79
2022/02/03 00:57:36;;;;;;;5.78;4.35;;;;;;;;;;5014011;28;20080;-79
2022/02/03 01:00:07;;;;;;;7.85;5.30;;;;;;;;;;5014090;28;20069;-78
2022/02/03 01:02:36;;;;;;;7.80;5.55;;;;;;;;;;5014648;28;20030;-79
2022/02/03 01:05:03;;;;;;;7.82;4.50;;;;;;;;;;4997410;28;20038;-79
2022/02/03 01:07:30;;;;;;;7.10;5.25;;;;;;;;;;5014222;28;20037;-78
2022/02/03 01:10:05;;;;;;;8.05;5.35;;;;;;;;;;4994527;28;20046;-78
2022/02/03 01:17:38;;;;;;;6.07;4.43;;;;;;;;;;4994418;28;20034;-78
2022/02/03 01:44:50;;;;;;;6.55;4.13;;;;;;;;;;5000543;28;20076;-78
2022/02/03 01:52:39;;;;;;;5.22;3.63;;;;;;;;;;5013273;28;20034;-78
2022/02/03 01:55:12;;;;;;;7.65;3.85;;;;;;;;;;5016087;28;21573;-78
2022/02/03 01:57:57;;;;;;;5.72;3.70;;;;;;;;;;4999190;28;20108;-78
2022/02/03 02:00:23;;;;;;;4.50;2.70;;;;;;;;;;5014947;28;20045;-78
2022/02/03 02:03:09;;;;;;;4.90;3.28;;;;;;;;;;4985961;28;20076;-78
2022/02/03 02:05:41;;;;;;;4.82;3.15;;;;;;;;;;5014010;28;20045;-78
2022/02/03 02:08:42;;;;;;;4.55;2.97;;;;;;;;;;5015725;28;20072;-78
2022/02/03 02:11:37;;;;;;;6.55;3.28;;;;;;;;;;5021470;28;20049;-78
2022/02/03 02:14:45;;;;;;;5.43;2.97;;;;;;;;;;4997837;28;20053;-79
2022/02/03 02:39:53;;;;;;;3.95;2.40;;;;;;;;;;5019260;28;20044;-78
2022/02/03 02:45:07;;;;;;;4.93;2.65;;;;;;;;;;5016757;28;20479;-78
2022/02/03 02:48:10;;;;;;;3.97;2.70;;;;;;;;;;5033144;28;20488;-78
2022/02/03 02:50:46;;;;;;;5.22;2.75;;;;;;;;;;5032686;28;20120;-78
2022/02/03 02:59:11;;;;;;;4.68;2.60;;;;;;;;;;5005040;28;20050;-78
2022/02/03 03:32:11;;;;;;;4.65;2.38;;;;;;;;;;5015950;28;20048;-78
2022/02/03 03:37:09;;;;;;;3.75;2.40;;;;;;;;;;5014108;28;20064;-78
2022/02/03 03:39:42;;;;;;;4.55;1.90;;;;;;;;;;4980368;28;20404;-78
2022/02/03 03:42:08;;;;;;;3.47;1.88;;;;;;;;;;5002804;28;20033;-78
2022/02/03 03:44:34;;;;;;;3.75;2.00;;;;;;;;;;5011820;28;20038;-78
2022/02/03 03:47:01;;;;;;;3.22;1.98;;;;;;;;;;4994160;28;20117;-78
2022/02/03 03:49:43;;;;;;;3.05;1.73;;;;;;;;;;5005941;28;20053;-78
2022/02/03 03:52:14;;;;;;;4.77;2.33;;;;;;;;;;5016531;28;20098;-78
2022/02/03 03:54:47;;;;;;;3.97;2.25;;;;;;;;;;4999800;28;20049;-78
2022/02/03 04:00:23;;;;;;;3.78;1.80;;;;;;;;;;5014766;28;20048;-78
2022/02/03 04:45:58;;;;;;;2.67;1.27;;;;;;;;;;5017458;28;20072;-77
2022/02/03 05:07:10;;;;;;;2.67;1.75;;;;;;;;;;5010704;28;20046;-77
2022/02/03 05:12:34;;;;;;;2.05;1.23;;;;;;;;;;4997360;28;20045;-77
2022/02/03 05:15:34;;;;;;;3.92;1.60;;;;;;;;;;5012107;28;20040;-77
2022/02/03 05:21:45;;;;;;;3.17;1.20;;;;;;;;;;5011721;28;20057;-77
2022/02/03 05:42:44;;;;;;;2.47;1.38;;;;;;;;;;5003428;28;20067;-77
2022/02/03 05:50:34;;;;;;;2.67;1.20;;;;;;;;;;5013553;28;20103;-77
2022/02/03 06:03:51;;;;;;;3.88;1.45;;;;;;;;;;4994079;28;20050;-77
2022/02/03 06:14:19;;;;;;;1.85;1.25;;;;;;;;;;5013153;28;20042;-78
2022/02/03 06:22:29;;;;;;;1.95;1.10;;;;;;;;;;5016093;28;20381;-77
2022/02/03 06:27:28;;;;;;;2.78;1.33;;;;;;;;;;4996984;28;20096;-76
2022/02/03 06:29:57;;;;;;;1.83;0.90;;;;;;;;;;4997498;28;20048;-78
2022/02/03 06:32:23;;;;;;;2.35;1.20;;;;;;;;;;4995856;28;20040;-78
2022/02/03 06:34:49;;;;;;;3.05;1.20;;;;;;;;;;4988313;28;20048;-77
2022/02/03 06:37:14;;;;;;;4.85;1.42;;;;;;;;;;4997510;28;20496;-76
2022/02/03 06:39:39;;;;;;;4.05;1.35;;;;;;;;;;5005779;28;20040;-76
2022/02/03 06:42:06;;;;;;;3.90;1.98;;;;;;;;;;5012726;28;20123;-76
2022/02/03 06:44:43;;;;;;;74.50;53.95;;;;;;;;;;4997319;28;20061;-76
2022/02/03 06:50:03;;;;;;;111.32;83.07;;;;;;;;;;5010442;28;20033;-76
2022/02/03 06:55:10;;;;;;;71.15;49.83;;;;;;;;;;4996987;28;20042;-76
2022/02/03 06:57:42;;;;;;;60.85;45.30;;;;;;;;;;4981685;28;20061;-76
2022/02/03 07:00:20;;;;;;;58.65;43.08;;;;;;;;;;4966046;28;20424;-76
2022/02/03 07:02:48;;;;;;;61.13;44.17;;;;;;;;;;5013009;28;20030;-76
2022/02/03 07:05:13;;;;;;;66.13;43.97;;;;;;;;;;4994213;28;20095;-76
2022/02/03 07:07:39;;;;;;;64.18;43.80;;;;;;;;;;4999639;28;20037;-76
2022/02/03 07:10:06;;;;;;;57.30;41.85;;;;;;;;;;4988475;28;20041;-76
2022/02/03 07:12:31;;;;;;;55.97;40.22;;;;;;;;;;5015964;28;20041;-76
2022/02/03 07:14:59;;;;;;;52.25;35.78;;;;;;;;;;5016115;28;20095;-77
2022/02/03 07:17:25;;;;;;;58.55;38.10;;;;;;;;;;5000091;28;20030;-77
2022/02/03 07:19:54;;;;;;;55.00;36.35;;;;;;;;;;5015542;28;20263;-76
2022/02/03 07:22:19;;;;;;;47.00;33.55;;;;;;;;;;5000039;28;20099;-76
2022/02/03 07:24:45;;;;;;;47.60;33.70;;;;;;;;;;4996219;28;20467;-77
2022/02/03 07:27:11;;;;;;;47.75;32.45;;;;;;;;;;5000697;28;20029;-77
2022/02/03 07:29:36;;;;;;;44.08;32.20;;;;;;;;;;5015344;28;20045;-77
2022/02/03 07:32:02;;;;;;;41.15;30.77;;;;;;;;;;4997336;28;20033;-77
2022/02/03 07:34:28;;;;;;;41.63;28.73;;;;;;;;;;5009926;28;20545;-77
2022/02/03 07:36:54;;;;;;;41.75;27.73;;;;;;;;;;4995369;28;20030;-77
2022/02/03 07:39:19;;;;;;;38.80;27.35;;;;;;;;;;4979490;28;20048;-77
2022/02/03 07:41:44;;;;;;;37.33;27.25;;;;;;;;;;5014602;28;20038;-76
2022/02/03 07:44:14;;;;;;;34.15;25.92;;;;;;;;;;5031972;28;20037;-76
2022/02/03 07:46:39;;;;;;;32.67;25.00;;;;;;;;;;5000193;28;20057;-76
2022/02/03 07:49:04;;;;;;;32.95;23.40;;;;;;;;;;5014917;28;20113;-76
2022/02/03 07:51:30;;;;;;;31.23;21.60;;;;;;;;;;4998891;28;20033;-76
2022/02/03 07:53:56;;;;;;;31.77;22.70;;;;;;;;;;5030455;28;20041;-77
2022/02/03 07:56:21;;;;;;;33.00;23.48;;;;;;;;;;5015041;28;20033;-76
2022/02/03 07:58:47;;;;;;;29.85;22.98;;;;;;;;;;4999105;28;20411;-76
2022/02/03 08:01:13;;;;;;;30.00;21.55;;;;;;;;;;5031576;28;20041;-77
2022/02/03 08:03:41;;;;;;;32.15;22.27;;;;;;;;;;5014639;28;20040;-76
2022/02/03 08:06:11;;;;;;;28.27;20.83;;;;;;;;;;4999208;28;20076;-76
2022/02/03 08:08:41;;;;;;;29.00;19.23;;;;;;;;;;4999085;28;20056;-76
2022/02/03 08:11:12;;;;;;;25.52;18.67;;;;;;;;;;5015558;28;20073;-76
2022/02/03 08:13:48;;;;;;;24.63;18.40;;;;;;;;;;5015509;28;20057;-76
2022/02/03 08:16:26;;;;;;;26.02;17.50;;;;;;;;;;5001531;28;20060;-77
2022/02/03 08:19:00;;;;;;;26.27;17.25;;;;;;;;;;5016526;28;20033;-77
2022/02/03 08:21:25;;;;;;;22.27;15.95;;;;;;;;;;4999547;28;20033;-77
2022/02/03 08:24:03;;;;;;;26.00;17.42;;;;;;;;;;4998352;28;20049;-77
2022/02/03 08:26:46;;;;;;;24.25;16.52;;;;;;;;;;5001183;28;20514;-77
2022/02/03 08:32:25;;;;;;;23.98;17.08;;;;;;;;;;5030837;28;20029;-77
2022/02/03 08:34:35;;;;;;;23.48;17.30;;;;;;;;;;5008319;28;20388;-77
2022/02/03 08:37:04;;;;;;;22.48;15.68;;;;;;;;;;4981740;28;20034;-77
2022/02/03 08:39:34;;;;;;;19.85;15.05;;;;;;;;;;5010954;28;20037;-77
2022/02/03 08:42:00;;;;;;;22.52;15.35;;;;;;;;;;4980021;28;20041;-77
2022/02/03 08:44:25;;;;;;;23.83;16.92;;;;;;;;;;4978444;28;20119;-77
2022/02/03 08:46:50;;;;;;;21.88;15.90;;;;;;;;;;4994878;28;20072;-77
2022/02/03 08:49:18;;;;;;;23.42;16.95;;;;;;;;;;4978174;28;20046;-77
2022/02/03 08:51:46;;;;;;;22.45;16.42;;;;;;;;;;5010837;28;20505;-77
2022/02/03 08:54:12;;;;;;;24.15;15.63;;;;;;;;;;5010636;28;20053;-76
2022/02/03 09:39:10;;;;;;;15.93;10.18;;;;;;;;;;4994700;28;20105;-77
2022/02/03 10:00:25;;;;;;;13.25;8.35;;;;;;;;;;5000674;28;20037;-77
2022/02/03 10:03:04;;;;;;;12.40;8.35;;;;;;;;;;5015084;28;20029;-76
2022/02/03 10:05:35;;;;;;;10.55;7.70;;;;;;;;;;4981806;28;20030;-77
2022/02/03 10:08:00;;;;;;;11.48;7.68;;;;;;;;;;4998085;28;20041;-76
2022/02/03 10:10:28;;;;;;;10.95;7.65;;;;;;;;;;5010102;28;20531;-77
2022/02/03 10:12:53;;;;;;;11.93;8.00;;;;;;;;;;5000738;28;20045;-76
2022/02/03 10:15:20;;;;;;;10.75;7.28;;;;;;;;;;5033581;28;20041;-77
2022/02/03 10:17:48;;;;;;;10.30;7.25;;;;;;;;;;5000832;28;20045;-77
2022/02/03 10:20:16;;;;;;;9.70;7.30;;;;;;;;;;4984575;28;20057;-76
2022/02/03 10:22:47;;;;;;;10.55;7.25;;;;;;;;;;5017431;28;20041;-77
2022/02/03 10:25:15;;;;;;;10.15;6.72;;;;;;;;;;5017261;28;20091;-77
2022/02/03 10:27:46;;;;;;;9.20;6.63;;;;;;;;;;5017369;28;20037;-76
2022/02/03 10:30:26;;;;;;;9.32;6.88;;;;;;;;;;5001496;28;20037;-77
2022/02/03 10:32:52;;;;;;;9.60;6.00;;;;;;;;;;5017739;28;20056;-77
2022/02/03 10:35:20;;;;;;;9.15;6.60;;;;;;;;;;4996758;28;20034;-77
2022/02/03 10:38:04;;;;;;;8.48;5.82;;;;;;;;;;5013294;28;20057;-76
2022/02/03 10:41:11;;;;;;;9.50;6.00;;;;;;;;;;4984080;28;20041;-77
2022/02/03 10:44:07;;;;;;;8.68;6.28;;;;;;;;;;4985476;28;20057;-76
2022/02/03 10:46:43;;;;;;;8.35;5.25;;;;;;;;;;4997673;28;20030;-77
2022/02/03 10:49:14;;;;;;;9.30;5.45;;;;;;;;;;4999325;28;20143;-76
2022/02/03 11:07:44;;;;;;;6.85;4.65;;;;;;;;;;4999038;28;20033;-76
2022/02/03 11:10:25;;;;;;;6.93;4.80;;;;;;;;;;5006783;28;20038;-77
2022/02/03 11:12:52;;;;;;;5.82;3.65;;;;;;;;;;5004041;28;20049;-77
2022/02/03 11:15:17;;;;;;;7.28;4.35;;;;;;;;;;5016105;28;20116;-77
2022/02/03 11:17:45;;;;;;;5.72;3.90;;;;;;;;;;4999330;28;20435;-77
2022/02/03 11:20:11;;;;;;;6.80;4.32;;;;;;;;;;4999665;28;20034;-77
2022/02/03 11:22:53;;;;;;;6.00;3.90;;;;;;;;;;5015939;28;20103;-77
2022/02/03 11:25:33;;;;;;;7.85;4.20;;;;;;;;;;5018191;28;20092;-77
2022/02/03 12:06:11;;;;;;;6.25;3.60;;;;;;;;;;5011489;28;20065;-77
2022/02/03 12:11:32;;;;;;;5.28;3.15;;;;;;;;;;5011842;28;20041;-77
2022/02/03 12:22:14;;;;;;;7.72;3.15;;;;;;;;;;5014823;28;20037;-76
2022/02/03 12:24:52;;;;;;;4.93;2.88;;;;;;;;;;4995854;28;20026;-76
2022/02/03 12:27:36;;;;;;;7.10;3.05;;;;;;;;;;5003936;28;20046;-76
2022/02/03 12:37:00;;;;;;;5.45;2.92;;;;;;;;;;4984343;28;20050;-77
2022/02/03 12:38:52;;;;;;;4.78;2.70;;;;;;;;;;4996923;28;20092;-76
2022/02/03 12:41:21;;;;;;;6.45;2.90;;;;;;;;;;4995079;28;20096;-76
2022/02/03 12:44:03;;;;;;;9.38;4.32;;;;;;;;;;4979353;28;20038;-77
2022/02/03 12:46:29;;;;;;;11.00;7.30;;;;;;;;;;4996585;28;20034;-77
2022/02/03 12:48:55;;;;;;;11.18;7.28;;;;;;;;;;4994340;28;20065;-76
2022/02/03 12:51:22;;;;;;;10.23;5.97;;;;;;;;;;4981532;28;20639;-77
2022/02/03 12:53:48;;;;;;;8.90;5.20;;;;;;;;;;4994486;28;20129;-76
2022/02/03 12:56:13;;;;;;;12.07;6.30;;;;;;;;;;5010589;28;20412;-76
2022/02/03 12:58:43;;;;;;;8.27;5.75;;;;;;;;;;4994026;28;20076;-77
2022/02/03 13:01:18;;;;;;;9.55;6.72;;;;;;;;;;4995253;28;20092;-77
2022/02/03 13:03:48;;;;;;;12.25;5.97;;;;;;;;;;4980165;28;20038;-77
2022/02/03 13:06:19;;;;;;;12.70;7.05;;;;;;;;;;4994860;28;20455;-77
2022/02/03 13:08:47;;;;;;;9.70;6.03;;;;;;;;;;4995007;28;20048;-76
2022/02/03 13:11:28;;;;;;;11.73;5.97;;;;;;;;;;5026763;28;20056;-77
2022/02/03 13:27:31;;;;;;;11.27;6.85;;;;;;;;;;5019628;28;20033;-77
2022/02/03 13:30:03;;;;;;;14.82;9.00;;;;;;;;;;5001660;28;20038;-76
2022/02/03 13:32:43;;;;;;;12.93;7.85;;;;;;;;;;4986571;28;20486;-77
2022/02/03 13:35:41;;;;;;;15.43;7.70;;;;;;;;;;5018990;28;20049;-77
2022/02/03 13:38:07;;;;;;;15.43;8.48;;;;;;;;;;5013877;28;20107;-77
2022/02/03 13:40:32;;;;;;;17.83;7.13;;;;;;;;;;5001431;28;20120;-76
2022/02/03 13:43:02;;;;;;;14.05;7.53;;;;;;;;;;5020985;28;20038;-76
2022/02/03 13:45:28;;;;;;;16.13;7.35;;;;;;;;;;5003776;28;20048;-77
2022/02/03 13:47:53;;;;;;;10.93;6.45;;;;;;;;;;5014350;28;20025;-77
2022/02/03 13:50:29;;;;;;;16.83;7.07;;;;;;;;;;5036810;28;20037;-76
2022/02/03 13:53:04;;;;;;;11.23;6.35;;;;;;;;;;5021774;28;20167;-77
2022/02/03 14:14:59;;;;;;;12.13;6.07;;;;;;;;;;5000859;28;20030;-77
2022/02/03 14:28:03;;;;;;;12.55;6.55;;;;;;;;;;5017067;28;20069;-76
2022/02/03 14:30:29;;;;;;;10.02;5.38;;;;;;;;;;4997989;28;20112;-76
2022/02/03 14:32:57;;;;;;;9.05;5.55;;;;;;;;;;4981063;28;20042;-76
2022/02/03 14:35:23;;;;;;;10.88;5.40;;;;;;;;;;5009649;28;20040;-76
2022/02/03 14:38:04;;;;;;;11.90;5.43;;;;;;;;;;4999989;28;20037;-76
2022/02/03 14:40:50;;;;;;;8.75;4.70;;;;;;;;;;4998988;28;20040;-76
2022/02/03 14:43:16;;;;;;;10.63;6.20;;;;;;;;;;4986377;28;20050;-76
2022/02/03 14:45:41;;;;;;;9.35;4.28;;;;;;;;;;5000557;28;20060;-76
2022/02/03 14:48:06;;;;;;;11.23;5.30;;;;;;;;;;4996013;28;20037;-76
2022/02/03 14:50:32;;;;;;;8.40;4.43;;;;;;;;;;5016330;28;20423;-76
2022/02/03 14:53:01;;;;;;;11.10;4.95;;;;;;;;;;5036140;28;20033;-76
2022/02/03 14:58:22;;;;;;;16.02;4.45;;;;;;;;;;5001628;28;20038;-76
2022/02/03 15:00:49;;;;;;;14.48;4.85;;;;;;;;;;4967517;28;20045;-76
2022/02/03 15:03:15;;;;;;;9.85;4.85;;;;;;;;;;5012647;28;20407;-76
2022/02/03 15:05:42;;;;;;;11.60;4.30;;;;;;;;;;5012900;28;20030;-76
2022/02/03 15:08:17;;;;;;;11.35;4.53;;;;;;;;;;4996178;28;20519;-76
2022/02/03 15:11:03;;;;;;;10.75;5.07;;;;;;;;;;5007978;28;20041;-76
2022/02/03 15:16:03;;;;;;;10.85;4.40;;;;;;;;;;5016966;28;20033;-76
2022/02/03 15:18:28;;;;;;;9.75;3.90;;;;;;;;;;4979640;28;20036;-76
2022/02/03 15:20:54;;;;;;;8.20;3.70;;;;;;;;;;4980359;28;20404;-76
2022/02/03 15:23:19;;;;;;;10.43;3.50;;;;;;;;;;4979998;28;20049;-76
2022/02/03 15:25:45;;;;;;;9.38;3.92;;;;;;;;;;4978710;28;20034;-76
2022/02/03 15:28:10;;;;;;;11.40;3.78;;;;;;;;;;5000698;28;20040;-77
2022/02/03 15:30:36;;;;;;;11.48;3.45;;;;;;;;;;5010357;28;20033;-76
2022/02/03 15:33:07;;;;;;;9.73;3.75;;;;;;;;;;5010572;28;20045;-76
2022/02/03 15:35:37;;;;;;;8.77;3.63;;;;;;;;;;4996982;28;20034;-76
2022/02/03 15:38:05;;;;;;;9.38;3.72;;;;;;;;;;4995236;28;20516;-75
2022/02/03 15:40:31;;;;;;;43.72;26.27;;;;;;;;;;4996209;28;20038;-76
2022/02/03 15:43:02;;;;;;;36.28;21.00;;;;;;;;;;5012433;28;20049;-76
2022/02/03 15:45:33;;;;;;;33.25;18.13;;;;;;;;;;4996522;28;20041;-75
2022/02/03 15:48:03;;;;;;;25.65;16.25;;;;;;;;;;4996520;28;20404;-75
2022/02/03 15:50:57;;;;;;;22.50;14.65;;;;;;;;;;4967838;28;20072;-75
2022/02/03 16:01:32;;;;;;;27.15;13.15;;;;;;;;;;5012193;28;20034;-76
2022/02/03 16:17:40;;;;;;;27.77;11.88;;;;;;;;;;5017206;28;20033;-76
2022/02/03 16:20:19;;;;;;;20.67;11.20;;;;;;;;;;5015227;28;20038;-75
2022/02/03 16:52:57;;;;;;;19.25;8.85;;;;;;;;;;4996383;28;20034;-75
2022/02/03 16:55:25;;;;;;;17.95;8.93;;;;;;;;;;4995824;28;20045;-75
2022/02/03 16:57:54;;;;;;;20.42;8.13;;;;;;;;;;5005202;28;20045;-75
2022/02/03 17:00:20;;;;;;;15.95;8.32;;;;;;;;;;4998914;28;20103;-75
2022/02/03 17:02:45;;;;;;;18.25;7.85;;;;;;;;;;5014348;28;20499;-75
2022/02/03 17:05:12;;;;;;;15.05;7.13;;;;;;;;;;5029749;28;20403;-75
2022/02/03 17:07:37;;;;;;;19.88;8.15;;;;;;;;;;5001137;28;20424;-74
2022/02/03 17:10:04;;;;;;;19.77;8.25;;;;;;;;;;4994442;28;20044;-75
2022/02/03 17:12:29;;;;;;;18.73;8.73;;;;;;;;;;4994493;28;20117;-75
2022/02/03 17:14:55;;;;;;;150.52;64.57;;;;;;;;;;5010889;28;20392;-75
2022/02/03 17:17:20;;;;;;;68.20;31.65;;;;;;;;;;5010644;28;20053;-75
2022/02/03 17:19:49;;;;;;;45.55;21.95;;;;;;;;;;5010106;28;20059;-75
2022/02/03 17:22:17;;;;;;;33.58;18.80;;;;;;;;;;5017914;28;20116;-75
2022/02/03 17:24:52;;;;;;;36.17;18.05;;;;;;;;;;5014818;28;20045;-75
2022/02/03 17:27:27;;;;;;;36.70;17.73;;;;;;;;;;5013400;28;20037;-75
2022/02/03 17:30:16;;;;;;;32.42;17.02;;;;;;;;;;5021646;28;20060;-75
2022/02/03 18:27:38;;;;;;;19.15;8.18;;;;;;;;;;5030042;28;20037;-75
2022/02/03 18:37:28;;;;;;;27.85;15.02;;;;;;;;;;4999544;28;20056;-75
2022/02/03 18:50:38;;;;;;;22.63;11.15;;;;;;;;;;5032850;28;20037;-74
2022/02/03 18:53:11;;;;;;;16.20;10.30;;;;;;;;;;5001151;28;20030;-74
2022/02/03 20:02:21;;;;;;;12.20;5.30;;;;;;;;;;5008355;28;20503;-77
2022/02/03 20:04:49;;;;;;;12.02;5.38;;;;;;;;;;5009305;28;20092;-77
2022/02/03 20:07:30;;;;;;;9.32;5.05;;;;;;;;;;4987058;28;20049;-76
2022/02/03 20:10:11;;;;;;;11.13;5.20;;;;;;;;;;5009247;28;20038;-77
2022/02/03 20:12:36;;;;;;;8.18;5.40;;;;;;;;;;5012437;28;20099;-77
2022/02/03 20:15:03;;;;;;;7.72;4.95;;;;;;;;;;5014910;28;20037;-77
2022/02/03 20:17:29;;;;;;;8.18;4.47;;;;;;;;;;5011587;28;20034;-77
2022/02/03 20:19:55;;;;;;;14.75;6.43;;;;;;;;;;4995043;28;20045;-77
2022/02/03 20:22:27;;;;;;;8.52;5.90;;;;;;;;;;4979038;28;20191;-77
2022/02/03 20:24:52;;;;;;;8.15;5.20;;;;;;;;;;4996096;28;20046;-77
2022/02/03 20:27:18;;;;;;;8.38;5.32;;;;;;;;;;4994449;28;20116;-77
2022/02/03 20:29:44;;;;;;;7.30;4.93;;;;;;;;;;5003418;28;20113;-77
2022/02/03 20:32:09;;;;;;;11.07;5.13;;;;;;;;;;5011793;28;20042;-77
2022/02/03 20:34:35;;;;;;;10.68;4.82;;;;;;;;;;5013812;28;20037;-77
2022/02/03 20:37:01;;;;;;;6.88;4.50;;;;;;;;;;4997170;28;20047;-77
2022/02/03 20:39:26;;;;;;;7.93;4.75;;;;;;;;;;5014595;28;20033;-77
2022/02/03 20:41:52;;;;;;;7.82;5.00;;;;;;;;;;4997482;28;20045;-77
2022/02/03 20:44:17;;;;;;;12.40;5.13;;;;;;;;;;4994741;28;20049;-77
2022/02/03 20:46:42;;;;;;;8.98;4.95;;;;;;;;;;4994828;28;20041;-77
2022/02/03 20:49:08;;;;;;;8.57;4.63;;;;;;;;;;4994733;28;20037;-77
2022/02/03 20:51:33;;;;;;;7.47;4.28;;;;;;;;;;4984191;28;20399;-77
2022/02/03 20:53:59;;;;;;;8.82;5.30;;;;;;;;;;4982749;28;20034;-77
2022/02/03 20:56:25;;;;;;;7.22;4.05;;;;;;;;;;4992492;28;20232;-77
2022/02/03 20:58:50;;;;;;;7.40;3.92;;;;;;;;;;4993806;28;20054;-77
2022/02/03 21:01:27;;;;;;;6.28;3.92;;;;;;;;;;4978231;28;20038;-77
2022/02/03 21:04:00;;;;;;;7.30;4.07;;;;;;;;;;5018614;28;20103;-77
2022/02/03 21:06:25;;;;;;;7.97;4.72;;;;;;;;;;4996540;28;20061;-77
2022/02/03 21:08:51;;;;;;;6.82;4.25;;;;;;;;;;5004134;28;20470;-77
2022/02/03 21:11:17;;;;;;;6.13;4.20;;;;;;;;;;5028522;28;20045;-77
2022/02/03 21:13:43;;;;;;;8.25;4.63;;;;;;;;;;5013841;28;20033;-77
2022/02/03 21:16:09;;;;;;;7.65;4.32;;;;;;;;;;4997084;28;20034;-77
2022/02/03 21:18:41;;;;;;;6.13;3.95;;;;;;;;;;5029936;28;20519;-77
2022/02/03 21:21:06;;;;;;;5.63;3.33;;;;;;;;;;5017526;28;20424;-77
2022/02/03 21:23:32;;;;;;;6.18;3.50;;;;;;;;;;5001287;28;20443;-77
2022/02/03 21:26:00;;;;;;;5.93;3.40;;;;;;;;;;4994579;28;20080;-77
2022/02/03 21:28:28;;;;;;;6.90;3.47;;;;;;;;;;5002301;28;20022;-77
2022/02/03 21:30:54;;;;;;;5.97;3.70;;;;;;;;;;5012030;28;20075;-77
2022/02/03 21:33:29;;;;;;;6.60;3.75;;;;;;;;;;5013902;28;20034;-77
2022/02/03 21:35:59;;;;;;;5.20;3.10;;;;;;;;;;4966431;28;20501;-77
2022/02/03 21:38:25;;;;;;;6.05;2.83;;;;;;;;;;4995636;28;20037;-77
2022/02/03 21:40:50;;;;;;;5.57;3.15;;;;;;;;;;4989712;28;20037;-77
2022/02/03 21:43:16;;;;;;;6.60;4.13;;;;;;;;;;5000487;28;20121;-77
2022/02/03 21:45:41;;;;;;;5.22;2.88;;;;;;;;;;5016866;28;20115;-77
2022/02/03 21:48:07;;;;;;;5.97;3.53;;;;;;;;;;4996778;28;20042;-77
2022/02/03 21:50:38;;;;;;;4.32;2.58;;;;;;;;;;4996864;28;20126;-77
2022/02/03 21:53:11;;;;;;;5.10;3.03;;;;;;;;;;5013256;28;20045;-77
2022/02/03 21:55:37;;;;;;;4.40;3.10;;;;;;;;;;5013571;28;20034;-77
2022/02/03 21:58:02;;;;;;;5.75;3.67;;;;;;;;;;5013406;28;20038;-77
2022/02/03 22:00:29;;;;;;;6.85;3.22;;;;;;;;;;5013151;28;20048;-77
2022/02/03 22:02:54;;;;;;;6.90;3.63;;;;;;;;;;4996699;28;20045;-77
2022/02/03 22:05:21;;;;;;;4.65;2.95;;;;;;;;;;5002013;28;20381;-77
2022/02/03 22:07:47;;;;;;;6.20;3.08;;;;;;;;;;5016822;28;20048;-77
2022/02/03 22:10:20;;;;;;;5.38;3.05;;;;;;;;;;5016212;28;20072;-77
2022/02/03 22:12:47;;;;;;;5.43;3.45;;;;;;;;;;4998337;28;20049;-77
2022/02/03 22:15:12;;;;;;;5.68;3.53;;;;;;;;;;4997311;28;20559;-77
2022/02/03 22:17:39;;;;;;;7.03;3.40;;;;;;;;;;4997378;28;20089;-77
2022/02/03 22:20:09;;;;;;;6.43;3.00;;;;;;;;;;4988417;28;20121;-77
2022/02/03 22:44:12;;;;;;;5.45;2.88;;;;;;;;;;4998393;28;20085;-77
2022/02/03 22:46:51;;;;;;;5.03;3.20;;;;;;;;;;4998428;28;20050;-77
2022/02/03 22:49:17;;;;;;;4.30;2.58;;;;;;;;;;4998086;28;20045;-77
2022/02/03 22:51:43;;;;;;;4.93;2.95;;;;;;;;;;4996098;28;20042;-77
2022/02/03 22:54:10;;;;;;;4.15;2.38;;;;;;;;;;4996637;28;20044;-77
2022/02/03 22:56:35;;;;;;;4.20;2.60;;;;;;;;;;4996829;28;20500;-78
2022/02/03 23:01:33;;;;;;;3.50;2.30;;;;;;;;;;5006244;28;20037;-77
2022/02/03 23:03:59;;;;;;;3.88;2.30;;;;;;;;;;5015417;28;20040;-78
2022/02/03 23:06:25;;;;;;;3.60;2.25;;;;;;;;;;5016002;28;20037;-78
2022/02/03 23:23:52;;;;;;;6.13;2.53;;;;;;;;;;5016486;28;20037;-78
2022/02/03 23:26:20;;;;;;;3.60;2.55;;;;;;;;;;4999687;28;20571;-78
2022/02/03 23:28:46;;;;;;;3.05;2.13;;;;;;;;;;5004792;28;20088;-79
2022/02/03 23:31:11;;;;;;;3.50;2.08;;;;;;;;;;4996429;28;20549;-78
2022/02/03 23:33:37;;;;;;;3.55;2.22;;;;;;;;;;5011880;28;20053;-78
2022/02/03 23:36:03;;;;;;;4.13;2.17;;;;;;;;;;4991970;28;20037;-78
2022/02/03 23:46:47;;;;;;;3.03;1.75;;;;;;;;;;5006411;28;20551;-78
2022/02/03 23:52:09;;;;;;;3.00;1.80;;;;;;;;;;4987582;28;20100;-78
